Time;durP1;ratioP1;P1;durP2;ratioP2;P2;SDS_P1;SDS_P2;PMS_P1;PMS_P2;Temp;Humidity;BMP_temperature;BMP_pressure;BME280_temperature;BME280_humidity;BME280_pressure;Samples;Min_cycle;Max_cycle;Signal;HPM_P1;HPM_P2
2023/10/17 00:00:28;;;;;;;2.90;1.40;;;;;;;5.81;100.00;100258.17;88426;281;137438;-74
2023/10/17 00:02:32;;;;;;;2.70;1.40;;;;;;;5.81;100.00;100250.94;88349;282;22537;-74
2023/10/17 00:04:34;;;;;;;2.60;1.70;;;;;;;5.82;100.00;100261.27;88524;282;136779;-74
2023/10/17 00:06:37;;;;;;;3.40;1.60;;;;;;;5.82;100.00;100260.55;88592;281;22544;-75
2023/10/17 00:08:41;;;;;;;3.40;1.60;;;;;;;5.82;100.00;100266.48;88455;281;136900;-76
2023/10/17 00:10:45;;;;;;;1.90;1.10;;;;;;;5.83;100.00;100267.11;88579;282;24156;-75
2023/10/17 00:12:51;;;;;;;1.30;1.30;;;;;;;5.83;100.00;100267.25;88426;281;136830;-74
2023/10/17 00:16:55;;;;;;;2.10;1.70;;;;;;;5.84;100.00;100263.52;88298;278;138170;-74
2023/10/17 00:19:04;;;;;;;1.60;1.30;;;;;;;5.84;100.00;100262.63;88468;277;22853;-74
2023/10/17 00:21:22;;;;;;;2.10;1.50;;;;;;;5.84;100.00;100267.15;88612;279;136709;-69
2023/10/17 00:23:27;;;;;;;2.60;1.80;;;;;;;5.84;100.00;100264.02;88578;277;22731;-76
2023/10/17 00:25:29;;;;;;;1.20;1.10;;;;;;;5.83;100.00;100265.33;88460;280;136907;-76
2023/10/17 00:27:31;;;;;;;2.60;1.60;;;;;;;5.81;100.00;100263.93;88538;278;22548;-74
2023/10/17 00:29:33;;;;;;;4.50;2.70;;;;;;;5.79;100.00;100261.38;88438;282;137699;-76
2023/10/17 00:31:36;;;;;;;1.60;1.10;;;;;;;5.77;100.00;100266.66;88454;280;22623;-75
2023/10/17 00:33:41;;;;;;;3.40;1.30;;;;;;;5.76;100.00;100263.15;88552;282;136704;-70
2023/10/17 00:35:48;;;;;;;2.60;1.80;;;;;;;5.73;100.00;100268.23;88618;278;22571;-77
2023/10/17 00:37:59;;;;;;;4.10;1.80;;;;;;;5.71;100.00;100267.19;88317;275;136882;-72
2023/10/17 00:40:05;;;;;;;6.60;2.10;;;;;;;5.69;100.00;100269.89;88381;276;22634;-74
2023/10/17 00:44:14;;;;;;;2.90;2.10;;;;;;;5.64;100.00;100272.55;88698;274;137153;-78
2023/10/17 00:46:16;;;;;;;2.10;1.50;;;;;;;5.65;100.00;100274.61;88478;274;22553;-76
2023/10/17 00:48:38;;;;;;;7.10;2.30;;;;;;;5.64;100.00;100275.62;88364;273;138370;-72
2023/10/17 00:50:39;;;;;;;1.60;1.10;;;;;;;5.64;100.00;100277.05;88626;282;22780;-73
2023/10/17 00:52:42;;;;;;;2.10;1.60;;;;;;;5.63;100.00;100277.14;88318;275;137999;-74
2023/10/17 00:54:51;;;;;;;3.70;1.60;;;;;;;5.62;100.00;100280.08;88588;278;22621;-71
2023/10/17 00:56:56;;;;;;;3.10;1.80;;;;;;;5.60;100.00;100280.42;88305;279;137304;-78
2023/10/17 00:59:00;;;;;;;4.80;2.20;;;;;;;5.61;100.00;100285.10;88615;282;22533;-74
2023/10/17 01:01:20;;;;;;;1.90;1.80;;;;;;;5.61;100.00;100281.53;88385;275;137976;-72
2023/10/17 01:03:28;;;;;;;1.20;1.10;;;;;;;5.61;100.00;100283.62;88538;274;23748;-76
2023/10/17 01:05:57;;;;;;;3.00;2.10;;;;;;;5.61;100.00;100284.17;88445;278;138252;-75
2023/10/17 01:08:00;;;;;;;1.70;1.60;;;;;;;5.59;100.00;100285.94;88558;274;22615;-75
2023/10/17 01:11:55;;;;;;;2.30;1.80;;;;;;;5.54;100.00;100294.83;87084;302;603238;-72
2023/10/17 01:13:57;;;;;;;2.40;2.20;;;;;;;5.51;100.00;100293.54;87838;291;135855;-73
2023/10/17 01:16:05;;;;;;;3.60;1.90;;;;;;;5.50;100.00;100296.47;88014;293;22544;-74
2023/10/17 01:18:08;;;;;;;4.10;1.70;;;;;;;5.49;100.00;100298.15;88385;287;22537;-74
2023/10/17 01:20:15;;;;;;;2.30;1.90;;;;;;;5.49;100.00;100302.70;88261;287;136249;-74
2023/10/17 01:22:17;;;;;;;3.20;2.90;;;;;;;5.50;100.00;100300.64;88196;286;24500;-72
2023/10/17 01:24:19;;;;;;;2.80;1.80;;;;;;;5.50;100.00;100303.48;88076;288;137991;-73
2023/10/17 01:26:21;;;;;;;6.00;2.30;;;;;;;5.52;100.00;100307.68;87882;279;621635;-73
2023/10/17 01:28:23;;;;;;;7.60;6.80;;;;;;;5.54;100.00;100306.45;88308;278;136633;-75
2023/10/17 01:30:29;;;;;;;3.90;2.70;;;;;;;5.53;100.00;100308.08;88333;278;22539;-72
2023/10/17 01:32:33;;;;;;;3.80;2.30;;;;;;;5.53;100.00;100312.34;88267;282;136635;-72
2023/10/17 01:34:36;;;;;;;6.80;2.30;;;;;;;5.53;100.00;100310.60;88332;285;22535;-72
2023/10/17 01:36:38;;;;;;;3.00;1.90;;;;;;;5.55;100.00;100316.59;88365;285;136481;-73
2023/10/17 01:38:42;;;;;;;4.80;3.10;;;;;;;5.55;100.00;100316.36;88340;281;22545;-72
2023/10/17 01:40:43;;;;;;;3.60;1.90;;;;;;;5.56;100.00;100322.61;88315;281;136574;-75
2023/10/17 01:42:45;;;;;;;1.80;1.70;;;;;;;5.56;100.00;100329.83;88391;281;23986;-72
2023/10/17 01:44:47;;;;;;;4.00;1.60;;;;;;;5.56;100.00;100332.63;88171;285;138096;-75
2023/10/17 01:46:49;;;;;;;4.00;1.70;;;;;;;5.57;100.00;100336.60;88376;284;22526;-77
2023/10/17 01:48:55;;;;;;;2.00;1.60;;;;;;;5.57;100.00;100336.44;88134;285;138059;-73
2023/10/17 01:50:57;;;;;;;2.70;2.50;;;;;;;5.59;100.00;100335.38;88312;285;25083;-73
2023/10/17 01:53:00;;;;;;;3.60;2.10;;;;;;;5.62;100.00;100335.95;88245;285;137810;-74
2023/10/17 01:55:10;;;;;;;2.70;2.20;;;;;;;5.57;100.00;100327.48;88176;279;22607;-72
2023/10/17 01:57:14;;;;;;;2.10;1.50;;;;;;;5.68;100.00;100344.48;88135;283;135745;-69
2023/10/17 01:59:25;;;;;;;4.10;2.60;;;;;;;5.68;100.00;100343.60;88185;283;25131;-75
2023/10/17 02:01:31;;;;;;;1.90;1.30;;;;;;;5.69;100.00;100349.89;88248;279;135931;-74
2023/10/17 02:03:34;;;;;;;1.80;1.70;;;;;;;5.68;100.00;100354.18;88625;273;25090;-75
2023/10/17 02:05:36;;;;;;;2.20;1.60;;;;;;;5.68;100.00;100354.71;88634;277;136836;-74
2023/10/17 02:07:38;;;;;;;2.30;1.70;;;;;;;5.65;100.00;100353.73;88621;277;22571;-72
2023/10/17 02:11:46;;;;;;;3.30;1.10;;;;;;;5.65;100.00;100355.16;88645;274;22526;-76
2023/10/17 02:13:48;;;;;;;1.60;1.40;;;;;;;5.63;100.00;100357.27;88486;273;136355;-76
2023/10/17 02:15:50;;;;;;;3.20;1.60;;;;;;;5.63;100.00;100361.73;88673;273;22565;-75
2023/10/17 02:17:54;;;;;;;3.80;1.50;;;;;;;5.59;100.00;100361.63;88365;274;137417;-74
2023/10/17 02:19:59;;;;;;;2.20;1.40;;;;;;;5.54;100.00;100361.98;88536;274;25099;-76
2023/10/17 02:22:02;;;;;;;1.80;1.70;;;;;;;5.52;100.00;100371.14;88404;275;137208;-75
2023/10/17 02:24:06;;;;;;;2.10;1.60;;;;;;;5.51;100.00;100372.88;88395;274;136808;-72
2023/10/17 02:26:12;;;;;;;2.80;1.30;;;;;;;5.51;100.00;100373.21;88670;282;22543;-78
2023/10/17 02:28:14;;;;;;;2.90;1.80;;;;;;;5.50;100.00;100372.95;88530;275;136687;-76
2023/10/17 02:30:20;;;;;;;1.40;1.10;;;;;;;5.49;100.00;100377.63;88618;281;25084;-74
2023/10/17 02:32:22;;;;;;;3.70;2.20;;;;;;;5.49;100.00;100378.88;88584;275;136616;-77
2023/10/17 02:34:31;;;;;;;2.90;1.80;;;;;;;5.50;100.00;100381.91;88868;273;25105;-73
2023/10/17 02:36:33;;;;;;;3.00;1.60;;;;;;;5.53;100.00;100383.23;88510;277;136339;-74
2023/10/17 02:38:36;;;;;;;2.30;1.70;;;;;;;5.56;100.00;100386.27;88555;274;22882;-71
2023/10/17 02:40:40;;;;;;;3.70;1.80;;;;;;;5.58;100.00;100388.30;88593;281;136460;-72
2023/10/17 02:42:42;;;;;;;1.90;1.60;;;;;;;5.61;100.00;100390.63;88632;274;25088;-73
2023/10/17 02:44:45;;;;;;;1.20;1.20;;;;;;;5.65;100.00;100388.61;88613;276;136203;-74
2023/10/17 02:46:50;;;;;;;2.40;1.70;;;;;;;5.70;100.00;100393.14;88634;273;22542;-72
2023/10/17 02:48:55;;;;;;;4.00;1.60;;;;;;;5.72;100.00;100392.59;88427;281;136343;-69
2023/10/17 02:51:00;;;;;;;2.40;1.90;;;;;;;5.74;100.00;100394.30;88634;283;23707;-70
2023/10/17 02:53:03;;;;;;;2.20;1.50;;;;;;;5.78;100.00;100393.22;88393;281;137142;-70
2023/10/17 02:55:08;;;;;;;2.30;2.00;;;;;;;5.81;100.00;100397.14;88576;277;25233;-69
2023/10/17 02:57:10;;;;;;;2.40;1.90;;;;;;;5.82;100.00;100399.00;88503;281;136276;-75
2023/10/17 02:59:13;;;;;;;3.30;2.10;;;;;;;5.82;100.00;100400.69;88529;282;22551;-75
2023/10/17 03:01:17;;;;;;;2.40;1.70;;;;;;;5.83;100.00;100401.34;88451;273;137003;-72
2023/10/17 03:03:19;;;;;;;3.90;2.30;;;;;;;5.77;100.00;100394.41;88412;280;22531;-70
2023/10/17 03:05:24;;;;;;;2.30;1.80;;;;;;;5.83;100.00;100400.60;88522;280;137788;-71
2023/10/17 03:07:30;;;;;;;2.70;2.50;;;;;;;5.84;100.00;100400.04;88715;273;24049;-73
2023/10/17 03:09:36;;;;;;;5.90;1.80;;;;;;;5.85;100.00;100404.11;88583;274;136006;-75
2023/10/17 03:11:47;;;;;;;4.40;2.10;;;;;;;5.84;100.00;100402.98;88583;280;22524;-75
2023/10/17 03:13:49;;;;;;;2.20;2.10;;;;;;;5.83;100.00;100398.33;88560;274;136500;-77
2023/10/17 03:16:00;;;;;;;3.10;1.90;;;;;;;5.83;100.00;100406.05;88639;280;22546;-75
2023/10/17 03:18:03;;;;;;;2.20;2.00;;;;;;;5.84;100.00;100402.49;88550;278;22607;-74
2023/10/17 03:20:08;;;;;;;2.50;2.00;;;;;;;5.83;100.00;100409.96;88579;281;136523;-73
2023/10/17 03:22:43;;;;;;;2.30;2.10;;;;;;;5.81;100.00;100407.86;88638;275;26432;-75
2023/10/17 03:24:39;;;;;;;4.40;2.30;;;;;;;5.80;100.00;100412.72;90045;280;136510;-71
2023/10/17 03:26:54;;;;;;;3.20;2.40;;;;;;;5.79;100.00;100415.13;90758;277;22789;-71
2023/10/17 03:28:56;;;;;;;2.00;1.90;;;;;;;5.76;100.00;100419.10;90651;282;136161;-72
2023/10/17 03:30:59;;;;;;;2.60;1.70;;;;;;;5.76;100.00;100424.27;90104;280;22528;-73
2023/10/17 03:35:07;;;;;;;2.40;2.20;;;;;;;5.73;100.00;100426.91;88657;280;22529;-75
2023/10/17 03:39:27;;;;;;;3.00;2.00;;;;;;;5.64;100.00;100425.40;88581;274;25185;-74
2023/10/17 03:41:30;;;;;;;3.90;2.20;;;;;;;5.61;100.00;100427.73;88543;277;137694;-73
2023/10/17 03:43:38;;;;;;;4.00;2.50;;;;;;;5.58;100.00;100425.89;88545;273;22559;-75
2023/10/17 03:45:43;;;;;;;3.10;2.40;;;;;;;5.57;100.00;100432.88;88637;281;136348;-70
2023/10/17 03:47:47;;;;;;;1.90;1.80;;;;;;;5.56;100.00;100432.05;88891;277;25080;-72
2023/10/17 03:49:55;;;;;;;2.80;2.50;;;;;;;5.55;100.00;100430.44;88643;273;137223;-74
2023/10/17 03:52:03;;;;;;;4.80;3.40;;;;;;;5.52;100.00;100437.93;88738;281;22618;-70
2023/10/17 03:54:08;;;;;;;8.00;4.60;;;;;;;5.52;100.00;100436.17;88526;282;22530;-72
2023/10/17 03:56:11;;;;;;;6.80;5.40;;;;;;;5.52;100.00;100439.20;88370;282;136673;-73
2023/10/17 04:00:33;;;;;;;6.40;5.10;;;;;;;5.52;100.00;100440.27;88257;279;137333;-72
2023/10/17 04:02:35;;;;;;;7.20;4.90;;;;;;;5.46;100.00;100432.56;88301;275;23049;-74
2023/10/17 04:04:46;;;;;;;6.70;5.80;;;;;;;5.51;100.00;100444.93;88304;280;137822;-73
2023/10/17 04:06:51;;;;;;;3.40;3.10;;;;;;;5.52;100.00;100446.61;88516;280;22534;-78
2023/10/17 04:13:34;;;;;;;7.50;4.00;;;;;;;5.48;100.00;100450.55;88338;273;136669;-74
2023/10/17 04:15:42;;;;;;;7.80;3.80;;;;;;;5.47;100.00;100460.27;88409;277;25095;-75
2023/10/17 04:17:48;;;;;;;5.90;4.20;;;;;;;5.46;100.00;100462.67;88367;280;137260;-74
2023/10/17 04:19:58;;;;;;;5.10;4.10;;;;;;;5.44;100.00;100466.44;88734;278;24841;-69
2023/10/17 04:24:26;;;;;;;9.90;6.00;;;;;;;5.40;100.00;100474.91;88313;277;137758;-74
2023/10/17 04:26:28;;;;;;;7.10;4.80;;;;;;;5.39;100.00;100482.04;88629;279;23747;-72
2023/10/17 04:28:30;;;;;;;5.40;4.70;;;;;;;5.39;100.00;100485.70;88653;280;137617;-75
2023/10/17 04:30:46;;;;;;;5.80;3.80;;;;;;;5.42;100.00;100488.77;89218;273;22472;-77
2023/10/17 04:32:52;;;;;;;4.70;2.90;;;;;;;5.48;100.00;100488.59;88455;273;136747;-72
2023/10/17 04:34:55;;;;;;;4.20;3.10;;;;;;;5.53;100.00;100493.06;88484;281;22930;-70
2023/10/17 04:36:57;;;;;;;4.70;2.90;;;;;;;5.57;100.00;100489.33;88293;280;136699;-72
2023/10/17 04:39:18;;;;;;;4.10;2.40;;;;;;;5.61;100.00;100497.17;88515;273;25229;-72
2023/10/17 04:41:35;;;;;;;2.50;2.30;;;;;;;5.73;100.00;100504.45;88444;277;137490;-72
2023/10/17 04:43:55;;;;;;;2.60;2.40;;;;;;;5.93;100.00;100508.84;88442;273;25328;-73
2023/10/17 04:45:57;;;;;;;3.30;3.00;;;;;;;6.17;100.00;100510.16;88534;273;137206;-72
2023/10/17 04:48:11;;;;;;;2.90;2.20;;;;;;;6.31;100.00;100514.48;88547;277;22543;-75
2023/10/17 04:50:15;;;;;;;7.60;2.80;;;;;;;6.39;100.00;100517.02;88601;274;24125;-73
2023/10/17 04:52:21;;;;;;;2.80;2.40;;;;;;;6.36;100.00;100515.09;88770;278;136961;-72
2023/10/17 04:54:31;;;;;;;;;;;;;;;6.36;100.00;100524.80;90281;280;25191;-72
2023/10/17 04:58:56;;;;;;;2.70;2.50;;;;;;;6.26;100.00;100530.06;89013;273;25105;-77
2023/10/17 05:03:13;;;;;;;3.70;2.90;;;;;;;6.28;100.00;100533.58;88654;273;22543;-80
2023/10/17 05:05:39;;;;;;;4.20;2.20;;;;;;;6.49;100.00;100525.24;89372;281;137205;-80
2023/10/17 06:18:39;;;;;;;2.50;2.30;;;;;;;7.32;100.00;100613.10;88466;273;22533;-71
2023/10/17 06:34:01;;;;;;;2.30;2.10;;;;;;;7.48;100.00;100629.91;88455;273;138213;-73
2023/10/17 06:36:13;;;;;;;3.20;2.60;;;;;;;7.44;100.00;100612.29;89143;273;137196;-71
2023/10/17 06:38:16;;;;;;;4.70;3.30;;;;;;;7.54;100.00;100626.08;88764;280;24057;-73
2023/10/17 06:40:18;;;;;;;3.50;2.50;;;;;;;7.43;100.00;100621.73;88361;273;136813;-75
2023/10/17 06:42:29;;;;;;;3.80;2.90;;;;;;;7.41;100.00;100634.48;88886;276;24061;-71
2023/10/17 06:44:33;;;;;;;2.70;2.00;;;;;;;7.34;100.00;100637.17;88364;272;136797;-72
2023/10/17 06:46:48;;;;;;;3.50;2.00;;;;;;;7.30;100.00;100642.50;88172;282;25086;-73
2023/10/17 06:48:56;;;;;;;5.70;4.20;;;;;;;7.28;100.00;100640.63;88344;273;136905;-74
2023/10/17 06:51:29;;;;;;;4.80;4.20;;;;;;;7.27;100.00;100646.92;88639;277;22541;-71
2023/10/17 06:53:34;;;;;;;3.40;2.50;;;;;;;7.24;100.00;100640.15;88482;272;137120;-73
2023/10/17 06:55:42;;;;;;;21.90;3.40;;;;;;;7.22;100.00;100646.38;88613;273;23708;-75
2023/10/17 06:57:44;;;;;;;6.70;4.50;;;;;;;7.20;100.00;100647.77;88316;272;137138;-73
2023/10/17 06:59:50;;;;;;;10.00;5.80;;;;;;;7.20;100.00;100648.29;88388;272;26472;-70
2023/10/17 07:02:04;;;;;;;8.00;5.10;;;;;;;7.20;100.00;100649.25;88371;273;136827;-71
2023/10/17 07:04:11;;;;;;;6.00;3.70;;;;;;;7.16;100.00;100648.14;88424;274;137207;-76
2023/10/17 07:06:13;;;;;;;6.30;4.20;;;;;;;7.15;100.00;100653.92;88509;273;22488;-72
2023/10/17 07:08:19;;;;;;;11.10;5.60;;;;;;;7.15;100.00;100656.91;88440;273;136636;-75
2023/10/17 07:12:33;;;;;;;9.20;4.80;;;;;;;7.16;100.00;100664.31;88312;278;137003;-69
2023/10/17 07:14:40;;;;;;;7.70;4.00;;;;;;;7.19;100.00;100661.37;88459;273;24019;-76
2023/10/17 07:16:48;;;;;;;6.70;3.70;;;;;;;7.23;100.00;100665.70;88386;273;136641;-71
2023/10/17 07:18:54;;;;;;;4.20;3.10;;;;;;;7.27;100.00;100670.29;88496;272;22810;-72
2023/10/17 07:23:19;;;;;;;5.00;2.80;;;;;;;7.38;100.00;100675.48;88596;276;22545;-72
2023/10/17 07:25:21;;;;;;;3.20;2.90;;;;;;;7.38;100.00;100672.08;88464;273;136696;-72
2023/10/17 07:27:27;;;;;;;4.80;3.00;;;;;;;7.38;100.00;100672.04;88450;273;22534;-71
2023/10/17 07:29:36;;;;;;;5.10;3.50;;;;;;;7.41;100.00;100674.63;88537;273;137225;-71
2023/10/17 07:31:38;;;;;;;5.10;2.60;;;;;;;7.47;100.00;100676.98;88589;274;23568;-71
2023/10/17 07:33:43;;;;;;;3.80;2.80;;;;;;;7.54;100.00;100671.07;88353;272;136822;-73
2023/10/17 07:35:46;;;;;;;5.00;2.60;;;;;;;7.61;100.00;100670.39;88498;273;22537;-73
2023/10/17 07:37:56;;;;;;;2.30;2.10;;;;;;;7.67;100.00;100673.30;88361;276;136825;-76
2023/10/17 07:40:16;;;;;;;1.80;1.60;;;;;;;7.70;99.93;100676.16;88562;272;25166;-72
2023/10/17 07:42:29;;;;;;;2.20;2.10;;;;;;;7.68;100.00;100677.45;88631;272;24031;-72
2023/10/17 07:44:34;;;;;;;2.40;2.00;;;;;;;7.67;99.92;100677.02;88438;272;137235;-69
2023/10/17 07:46:38;;;;;;;1.70;1.40;;;;;;;7.69;99.80;100679.51;88525;273;24049;-70
2023/10/17 07:48:40;;;;;;;3.00;2.60;;;;;;;7.72;98.75;100682.89;88426;273;137190;-76
2023/10/17 07:50:42;;;;;;;6.60;2.70;;;;;;;7.76;97.63;100686.92;88502;272;24803;-73
2023/10/17 07:52:47;;;;;;;6.00;2.30;;;;;;;7.78;96.93;100690.72;88676;272;137983;-71
2023/10/17 07:54:55;;;;;;;2.70;1.80;;;;;;;7.83;97.03;100686.64;88535;272;22578;-71
2023/10/17 07:56:58;;;;;;;3.10;1.60;;;;;;;7.90;97.40;100687.20;88401;278;138127;-74
2023/10/17 07:59:08;;;;;;;3.20;2.30;;;;;;;7.97;97.34;100690.11;88515;276;25080;-71
2023/10/17 08:01:14;;;;;;;4.00;2.30;;;;;;;8.05;96.41;100691.31;88310;279;139344;-71
2023/10/17 08:03:20;;;;;;;3.10;2.20;;;;;;;8.10;96.20;100698.93;88454;272;22546;-72
2023/10/17 08:05:23;;;;;;;4.50;1.60;;;;;;;8.14;95.78;100698.48;88294;274;138554;-68
2023/10/17 08:07:25;;;;;;;2.00;1.90;;;;;;;8.15;93.49;100697.80;88845;272;25213;-73
2023/10/17 08:09:36;;;;;;;1.50;1.40;;;;;;;8.14;93.60;100696.17;88257;277;135980;-73
2023/10/17 08:11:41;;;;;;;4.10;2.20;;;;;;;8.12;93.00;100703.28;88367;274;22541;-71
2023/10/17 08:13:45;;;;;;;3.00;2.10;;;;;;;8.12;93.32;100704.17;88410;280;135773;-62
2023/10/17 08:15:53;;;;;;;3.10;2.30;;;;;;;8.13;93.52;100702.80;88352;273;22530;-71
2023/10/17 08:17:59;;;;;;;2.50;2.00;;;;;;;8.17;93.65;100708.77;88412;272;135610;-78
2023/10/17 08:22:17;;;;;;;4.60;2.10;;;;;;;8.25;93.92;100705.48;88505;273;23626;-73
2023/10/17 08:24:40;;;;;;;2.90;1.80;;;;;;;8.25;92.76;100708.11;88955;279;135786;-73
2023/10/17 08:26:43;;;;;;;3.60;3.30;;;;;;;8.23;92.52;100707.41;88576;279;24770;-79
2023/10/17 08:30:51;;;;;;;2.80;2.50;;;;;;;8.21;92.54;100709.42;88423;280;22534;-68
2023/10/17 08:37:28;;;;;;;3.20;2.30;;;;;;;8.21;90.53;100709.92;88372;280;136913;-68
2023/10/17 08:41:33;;;;;;;3.00;2.20;;;;;;;8.28;90.63;100714.67;88270;273;136364;-65
2023/10/17 08:43:36;;;;;;;3.10;2.60;;;;;;;8.33;89.33;100716.21;88499;272;24256;-70
2023/10/17 08:45:39;;;;;;;4.20;2.60;;;;;;;8.33;87.70;100712.36;88401;277;136197;-66
2023/10/17 08:47:42;;;;;;;3.70;3.00;;;;;;;8.31;87.56;100713.79;88400;273;22924;-67
2023/10/17 08:49:46;;;;;;;4.20;3.20;;;;;;;8.28;88.90;100714.16;88572;272;135833;-64
2023/10/17 08:51:51;;;;;;;3.40;3.00;;;;;;;8.28;89.87;100711.17;88428;272;22545;-68
2023/10/17 08:53:54;;;;;;;4.50;2.90;;;;;;;8.30;89.56;100710.61;88473;278;136148;-72
2023/10/17 08:55:56;;;;;;;4.00;2.30;;;;;;;8.33;89.54;100711.86;88697;272;22801;-74
2023/10/17 08:58:04;;;;;;;;;;;;;;;8.31;87.47;100710.77;88413;273;136670;-65
2023/10/17 09:02:15;;;;;;;3.50;2.20;;;;;;;8.20;87.43;100713.18;88558;273;22457;-68
2023/10/17 09:04:17;;;;;;;3.50;2.20;;;;;;;8.18;87.80;100710.98;88517;272;136042;-70
2023/10/17 09:08:41;;;;;;;4.10;2.80;;;;;;;8.16;86.90;100710.69;88350;273;136138;-69
2023/10/17 09:10:45;;;;;;;2.20;2.10;;;;;;;8.16;87.67;100711.17;88349;273;23481;-67
2023/10/17 09:15:29;;;;;;;1.80;1.70;;;;;;;8.24;87.55;100715.64;88538;272;25216;-71
2023/10/17 09:17:31;;;;;;;1.90;1.40;;;;;;;8.30;87.12;100711.99;88394;272;137376;-65
2023/10/17 09:19:46;;;;;;;1.50;1.40;;;;;;;8.37;87.03;100710.65;88526;273;22537;-67
2023/10/17 09:21:49;;;;;;;7.30;2.60;;;;;;;8.49;87.66;100716.59;88285;273;137210;-65
2023/10/17 09:23:52;;;;;;;9.00;3.50;;;;;;;8.62;88.37;100713.02;88478;273;24776;-66
2023/10/17 09:25:55;;;;;;;19.30;7.80;;;;;;;8.76;86.53;100709.75;87836;273;735136;-69
2023/10/17 09:27:57;;;;;;;3.80;1.60;;;;;;;8.84;86.49;100706.59;88569;273;22675;-68
2023/10/17 09:29:59;;;;;;;2.00;1.80;;;;;;;8.90;84.36;100708.60;88347;272;135398;-67
2023/10/17 09:32:02;;;;;;;3.40;1.20;;;;;;;8.94;84.50;100709.03;88468;272;23663;-66
2023/10/17 09:34:07;;;;;;;1.00;0.80;;;;;;;8.89;83.64;100697.30;88487;272;23760;-67
2023/10/17 09:36:10;;;;;;;2.60;0.80;;;;;;;8.98;83.14;100705.00;88269;272;137599;-66
2023/10/17 09:38:12;;;;;;;2.50;1.50;;;;;;;8.96;82.80;100705.56;88432;280;25134;-67
2023/10/17 09:40:38;;;;;;;1.50;0.90;;;;;;;8.90;83.30;100696.47;88430;273;136087;-69
2023/10/17 09:42:47;;;;;;;3.40;1.60;;;;;;;8.96;83.46;100705.45;88415;273;22792;-67
2023/10/17 09:44:51;;;;;;;3.50;1.80;;;;;;;9.02;84.19;100704.27;88368;273;136291;-67
2023/10/17 09:46:56;;;;;;;2.80;1.80;;;;;;;9.11;84.11;100700.71;88469;273;22544;-66
2023/10/17 09:49:00;;;;;;;2.10;1.60;;;;;;;9.19;83.93;100701.44;88277;273;136140;-69
2023/10/17 09:51:03;;;;;;;1.80;1.00;;;;;;;9.27;83.11;100696.36;88353;273;25213;-70
2023/10/17 09:53:18;;;;;;;2.50;1.10;;;;;;;9.31;82.94;100691.77;88374;272;136174;-67
2023/10/17 09:55:24;;;;;;;1.10;0.80;;;;;;;9.36;81.52;100688.92;88552;273;24882;-65
2023/10/17 09:57:26;;;;;;;1.50;1.40;;;;;;;9.38;80.94;100684.50;88436;273;136193;-70
2023/10/17 09:59:38;;;;;;;2.30;0.90;;;;;;;9.35;80.03;100679.84;88639;277;22532;-66
2023/10/17 10:01:45;;;;;;;1.30;0.70;;;;;;;9.12;78.91;100655.66;88489;277;135718;-69
2023/10/17 10:03:53;;;;;;;1.50;0.80;;;;;;;9.22;79.02;100679.65;88349;280;24187;-69
2023/10/17 10:06:19;;;;;;;1.80;0.80;;;;;;;9.20;76.78;100682.81;88265;277;136039;-72
2023/10/17 10:08:34;;;;;;;1.70;1.10;;;;;;;9.14;76.91;100682.69;88355;273;136547;-68
2023/10/17 10:10:44;;;;;;;1.60;0.90;;;;;;;9.14;77.11;100681.44;88501;273;24028;-71
2023/10/17 10:12:59;;;;;;;3.60;2.10;;;;;;;9.19;77.38;100683.25;88341;277;136009;-67
2023/10/17 10:15:01;;;;;;;3.40;3.10;;;;;;;9.23;76.89;100680.68;88459;274;22715;-70
2023/10/17 10:17:03;;;;;;;3.50;3.10;;;;;;;9.27;78.06;100678.21;88266;272;138714;-71
2023/10/17 10:19:06;;;;;;;8.60;4.80;;;;;;;9.34;77.76;100677.85;88570;273;25286;-68
2023/10/17 10:21:09;;;;;;;3.50;2.40;;;;;;;9.39;76.62;100674.58;88291;273;137314;-72
2023/10/17 10:23:12;;;;;;;2.70;1.30;;;;;;;9.44;75.72;100680.80;88579;273;22600;-71
2023/10/17 10:25:13;;;;;;;0.60;0.40;;;;;;;9.47;74.07;100679.60;88397;273;135908;-67
2023/10/17 10:27:26;;;;;;;4.50;1.80;;;;;;;9.45;73.54;100676.34;88420;273;24098;-69
2023/10/17 10:29:28;;;;;;;1.60;1.10;;;;;;;9.48;74.23;100678.92;88290;273;136119;-68
2023/10/17 10:31:34;;;;;;;1.90;0.70;;;;;;;9.50;73.78;100673.86;88572;272;25135;-72
2023/10/17 10:33:36;;;;;;;5.60;4.50;;;;;;;9.53;73.00;100672.61;88466;276;136280;-68
2023/10/17 10:35:38;;;;;;;2.00;0.70;;;;;;;9.56;73.28;100672.54;88619;276;22948;-70
2023/10/17 10:37:54;;;;;;;0.80;0.40;;;;;;;9.60;73.73;100674.02;88468;272;137329;-72
2023/10/17 10:40:53;;;;;;;1.50;0.40;;;;;;;9.65;72.62;100677.75;88570;272;22553;-68
2023/10/17 10:42:41;;;;;;;1.20;1.10;;;;;;;9.64;71.28;100677.85;88477;273;22550;-68
2023/10/17 10:44:43;;;;;;;1.50;0.50;;;;;;;9.60;70.88;100673.82;88385;273;136715;-70
2023/10/17 10:46:44;;;;;;;2.30;0.40;;;;;;;9.55;70.88;100664.25;88505;273;22514;-72
2023/10/17 10:48:48;;;;;;;1.70;0.40;;;;;;;9.52;71.01;100665.55;88276;273;135943;-71
2023/10/17 10:50:56;;;;;;;1.40;0.50;;;;;;;9.49;69.92;100667.98;88728;272;22547;-72
2023/10/17 10:53:18;;;;;;;0.50;0.30;;;;;;;9.47;68.93;100665.31;88433;273;135230;-70
2023/10/17 10:55:20;;;;;;;0.90;0.40;;;;;;;9.46;67.36;100665.83;88564;273;25759;-71
2023/10/17 10:57:28;;;;;;;1.30;0.70;;;;;;;9.46;67.37;100664.27;88306;277;135979;-71
2023/10/17 10:59:30;;;;;;;1.00;0.30;;;;;;;9.47;67.13;100663.77;88408;273;22537;-72
2023/10/17 11:01:33;;;;;;;1.10;0.30;;;;;;;9.51;66.62;100660.05;88267;273;136082;-72
2023/10/17 11:03:42;;;;;;;2.20;0.30;;;;;;;9.56;66.59;100660.96;88424;280;24010;-69
2023/10/17 11:06:12;;;;;;;2.40;0.80;;;;;;;9.60;67.04;100662.67;88413;276;136066;-72
2023/10/17 11:08:15;;;;;;;0.60;0.20;;;;;;;9.64;67.42;100664.52;88418;272;136362;-73
2023/10/17 11:10:18;;;;;;;2.50;0.40;;;;;;;9.68;67.39;100665.09;88503;273;23765;-75
2023/10/17 11:12:22;;;;;;;6.50;5.90;;;;;;;9.71;66.42;100660.19;88359;273;136283;-73
2023/10/17 11:14:23;;;;;;;1.40;1.20;;;;;;;9.73;67.16;100659.54;88432;280;24303;-75
2023/10/17 11:16:26;;;;;;;1.10;0.60;;;;;;;9.75;65.41;100661.42;88302;280;137501;-72
2023/10/17 11:18:32;;;;;;;1.40;0.80;;;;;;;9.76;65.68;100656.52;88880;280;25127;-71
2023/10/17 11:20:35;;;;;;;3.50;1.10;;;;;;;9.68;65.95;100636.38;88454;280;136226;-71
2023/10/17 11:22:38;;;;;;;1.40;0.70;;;;;;;9.84;63.77;100649.83;88771;280;25169;-73
2023/10/17 11:24:44;;;;;;;1.30;0.60;;;;;;;9.86;62.19;100653.89;88397;277;136097;-71
2023/10/17 11:26:50;;;;;;;3.60;1.10;;;;;;;9.87;62.39;100654.77;88614;273;22533;-75
2023/10/17 11:28:52;;;;;;;2.10;0.90;;;;;;;9.91;62.94;100652.55;88460;280;136054;-72
2023/10/17 11:30:58;;;;;;;2.90;1.10;;;;;;;9.89;61.71;100640.91;88504;272;22561;-73
2023/10/17 11:33:04;;;;;;;1.70;0.60;;;;;;;9.93;59.54;100651.40;88429;273;137528;-72
2023/10/17 11:35:19;;;;;;;1.50;1.00;;;;;;;9.90;58.86;100651.59;88455;278;23726;-73
2023/10/17 11:37:21;;;;;;;2.90;0.50;;;;;;;9.88;59.57;100650.77;88440;273;137519;-73
2023/10/17 11:39:26;;;;;;;2.50;0.30;;;;;;;9.86;57.92;100648.81;88588;273;25165;-71
2023/10/17 11:41:30;;;;;;;1.20;0.30;;;;;;;9.84;58.29;100651.27;88390;273;136026;-70
2023/10/17 11:43:37;;;;;;;2.70;0.20;;;;;;;9.82;55.12;100660.16;88471;273;22540;-69
2023/10/17 11:45:41;;;;;;;0.50;0.30;;;;;;;9.81;55.11;100652.30;88418;280;136236;-72
2023/10/17 11:47:42;;;;;;;1.10;0.20;;;;;;;9.81;55.45;100648.02;88445;273;22763;-71
2023/10/17 11:49:47;;;;;;;1.50;0.50;;;;;;;9.83;55.80;100653.96;88376;278;135940;-72
2023/10/17 11:51:58;;;;;;;1.90;0.30;;;;;;;9.87;55.48;100646.95;88569;273;22564;-72
2023/10/17 11:54:06;;;;;;;2.70;2.00;;;;;;;9.89;54.99;100641.38;88387;272;136033;-75
2023/10/17 11:56:21;;;;;;;1.30;1.00;;;;;;;9.88;54.61;100648.80;88330;278;136286;-70
2023/10/17 11:58:25;;;;;;;1.10;0.40;;;;;;;9.85;54.62;100648.95;88401;272;25200;-72
2023/10/17 12:00:28;;;;;;;0.80;0.30;;;;;;;9.81;54.85;100651.65;88312;273;136237;-74
2023/10/17 12:02:30;;;;;;;1.80;0.50;;;;;;;9.75;55.25;100654.57;88478;277;22548;-72
2023/10/17 12:04:34;;;;;;;2.00;0.80;;;;;;;9.72;55.52;100659.02;88413;273;136243;-73
2023/10/17 12:06:36;;;;;;;0.70;0.30;;;;;;;9.70;56.06;100660.75;88470;277;22635;-74